This demonstration page uses our WeatherBlox Daily Observations layout. Learn more.

36.17497, -115.13722

Hourly Observations for September 24, 2018

Temp ( °F °C ) Dew Point ( °F °C ) Humidity (%) Winds ( mph kmh ) Pressure ( in mb ) Visibility ( mi km ) Precip ( " mm )
12:53 am 00:53 Clear 86 30 38 3.3 18 18 W 10 17 29.74 1007 10 16.09344 0 0
1:53 am 01:53 Clear 79 26.1 39 3.9 24 24 NE 6 9 29.74 1007 10 16.09344 0 0
2:53 am 02:53 Clear 82 27.8 39 3.9 22 22 N 3 6 29.74 1007 10 16.09344 0 0
3:53 am 03:53 Clear 77 25 39 3.9 26 26 E 7 11 29.74 1007 10 16.09344 0 0
4:53 am 04:53 Clear 76 24.4 39 3.9 26 26 N 7 11 29.74 1007 10 16.09344 0 0
5:53 am 05:53 Clear 74 23.3 40 4.4 29 29 Calm 29.77 1008 10 16.09344 0 0
6:53 am 06:53 Sunny 72 22.2 39 3.9 30 30 Calm 29.77 1008 10 16.09344 0 0
7:53 am 07:53 Sunny 78 25.6 43 6.1 29 29 Calm 29.8 1009 10 16.09344 0 0
8:53 am 08:53 Sunny 83 28.3 39 3.9 21 21 N 5 7 29.8 1009 10 16.09344 0 0
9:53 am 09:53 Sunny 86 30 39 3.9 19 19 Calm 29.83 1010 10 16.09344 0 0
10:53 am 10:53 Sunny 90 32.2 39 3.9 17 17 Calm 29.8 1009 10 16.09344 0 0
11:53 am 11:53 Sunny 92 33.3 39 3.9 16 16 E 3 6 29.8 1009 10 16.09344 0 0
12:53 pm 12:53 Sunny 94 34.4 38 3.3 14 14 N 3 6 29.77 1008 10 16.09344 0 0
1:53 pm 13:53 Sunny 94 34.4 35 1.7 13 13 SW 7 11 29.74 1007 10 16.09344 0 0
2:53 pm 14:53 Sunny 96 35.6 35 1.7 12 12 WSW 15 24 29.71 1006 10 16.09344 0 0
3:53 pm 15:53 Sunny 96 35.6 35 1.7 12 12 NW 8 13 29.71 1006 10 16.09344 0 0
4:53 pm 16:53 Sunny 94 34.4 35 1.7 13 13 N 3 6 29.71 1006 10 16.09344 0 0
5:53 pm 17:53 Sunny 95 35 35 1.7 12 12 SW 10 17 29.71 1006 10 16.09344 0 0
6:53 pm 18:53 Clear 93 33.9 36 2.2 13 13 W 9 15 29.71 1006 10 16.09344 0 0
7:53 pm 19:53 Clear 91 32.8 36 2.2 14 14 WNW 10 17 29.74 1007 10 16.09344 0 0
8:53 pm 20:53 Clear 88 31.1 33 0.6 14 14 NNW 14 22 29.74 1007 10 16.09344 0 0
9:53 pm 21:53 Clear 88 31.1 33 0.6 14 14 W 9 15 29.77 1008 10 16.09344 0 0
10:53 pm 22:53 Clear 87 30.6 34 1.1 15 15 WNW 13 20 29.77 1008 10 16.09344 0 0
11:53 pm 23:53 Clear 83 28.3 36 2.2 19 19 WNW 5 7 29.8 1009 10 16.09344 0 0

Powered by AerisWeather